Time;durP1;ratioP1;P1;durP2;ratioP2;P2;SDS_P1;SDS_P2;PMS_P1;PMS_P2;Temp;Humidity;BMP_temperature;BMP_pressure;BME280_temperature;BME280_humidity;BME280_pressure;Samples;Min_cycle;Max_cycle;Signal;HPM_P1;HPM_P2
2023/02/28 00:00:48;;;;;;;6.78;1.80;;;;;;;2.98;52.83;103180.19;4954438;28;20137;-72
2023/02/28 00:03:16;;;;;;;5.82;1.88;;;;;;;2.83;53.27;103171.13;4953609;28;20100;-72
2023/02/28 00:05:42;;;;;;;7.35;3.03;;;;;;;2.79;52.99;103171.84;4954901;28;20046;-74
2023/02/28 00:08:08;;;;;;;6.72;1.88;;;;;;;2.72;53.13;103174.25;4960542;28;20670;-73
2023/02/28 00:10:34;;;;;;;2.50;1.65;;;;;;;2.48;53.84;103169.22;4967120;28;20491;-73
2023/02/28 00:13:05;;;;;;;5.57;1.92;;;;;;;2.52;53.74;103147.84;4956093;28;20048;-73
2023/02/28 00:15:31;;;;;;;5.50;1.70;;;;;;;2.48;53.70;103150.28;4969595;28;20054;-72
2023/02/28 00:17:57;;;;;;;2.60;1.75;;;;;;;2.72;53.29;103158.75;4953807;28;20553;-72
2023/02/28 00:20:23;;;;;;;3.90;2.50;;;;;;;2.67;53.07;103154.31;4953794;28;20053;-72
2023/02/28 00:22:50;;;;;;;4.40;2.47;;;;;;;2.66;53.33;103155.97;4957493;28;20622;-73
2023/02/28 00:25:22;;;;;;;6.03;2.25;;;;;;;2.66;53.00;103155.97;4952129;28;20054;-73
2023/02/28 00:27:48;;;;;;;5.60;2.15;;;;;;;2.76;53.31;103152.84;4962381;28;20047;-73
2023/02/28 00:30:16;;;;;;;6.68;1.95;;;;;;;2.58;53.26;103152.31;4956180;28;20112;-73
2023/02/28 00:32:41;;;;;;;8.02;2.72;;;;;;;2.83;52.97;103158.19;4938405;28;20026;-72
2023/02/28 00:35:08;;;;;;;9.98;2.90;;;;;;;2.70;53.03;103147.50;4962270;28;20396;-72
2023/02/28 00:37:34;;;;;;;6.82;2.63;;;;;;;2.61;53.68;103154.97;4948956;28;20419;-72
2023/02/28 00:39:59;;;;;;;5.70;2.63;;;;;;;2.69;53.22;103150.94;4956975;28;20050;-72
2023/02/28 00:42:27;;;;;;;4.85;2.53;;;;;;;2.79;52.83;103154.63;4943353;28;20049;-72
2023/02/28 00:44:52;;;;;;;5.70;2.80;;;;;;;2.87;52.41;103150.59;4956716;28;20081;-77
2023/02/28 00:47:18;;;;;;;5.35;3.20;;;;;;;2.92;52.45;103150.72;4957673;28;20455;-73
2023/02/28 00:49:43;;;;;;;6.05;2.92;;;;;;;2.91;52.18;103139.50;4953508;28;20451;-73
2023/02/28 00:52:11;;;;;;;6.85;2.78;;;;;;;2.85;52.66;103153.97;4956841;28;20035;-73
2023/02/28 00:54:37;;;;;;;8.00;3.38;;;;;;;2.79;52.80;103156.34;4965735;28;20419;-76
2023/02/28 00:57:02;;;;;;;5.80;2.78;;;;;;;2.77;52.51;103162.34;4947894;28;20041;-75
2023/02/28 00:59:28;;;;;;;5.18;2.90;;;;;;;2.97;52.49;103172.38;4941708;28;20262;-74
2023/02/28 01:01:53;;;;;;;6.43;3.35;;;;;;;2.93;52.16;103165.38;4947397;28;20037;-75
2023/02/28 01:04:20;;;;;;;5.28;3.35;;;;;;;2.35;53.37;103169.66;4944534;28;20515;-74
2023/02/28 01:06:46;;;;;;;5.50;2.50;;;;;;;2.31;53.44;103162.66;4942079;28;20045;-73
2023/02/28 01:09:11;;;;;;;10.18;3.15;;;;;;;2.33;53.53;103164.47;4958955;28;20045;-73
2023/02/28 01:11:38;;;;;;;6.32;2.85;;;;;;;2.62;52.89;103164.47;4957772;28;20038;-73
2023/02/28 01:14:04;;;;;;;5.38;2.58;;;;;;;2.60;52.63;103168.72;4971749;28;20058;-73
2023/02/28 01:16:30;;;;;;;5.40;2.90;;;;;;;2.57;52.45;103168.63;4968619;28;20439;-73
2023/02/28 01:18:56;;;;;;;6.97;2.88;;;;;;;2.47;52.78;103164.03;4959351;28;20065;-72
2023/02/28 01:21:23;;;;;;;7.07;2.95;;;;;;;2.54;53.09;103169.41;4943759;28;20073;-75
2023/02/28 01:23:49;;;;;;;8.80;3.05;;;;;;;2.60;52.61;103166.16;4949375;28;20172;-75
2023/02/28 01:26:18;;;;;;;6.35;2.63;;;;;;;2.56;52.37;103162.59;4956853;28;20258;-71
2023/02/28 01:28:43;;;;;;;7.25;3.03;;;;;;;2.53;52.56;103166.78;4970635;28;20030;-72
2023/02/28 01:31:09;;;;;;;10.50;4.00;;;;;;;2.55;52.75;103167.69;4978973;28;20106;-70
2023/02/28 01:33:37;;;;;;;3.97;2.70;;;;;;;2.55;53.11;103173.75;4986078;28;20034;-70
2023/02/28 01:36:13;;;;;;;9.70;2.88;;;;;;;2.15;53.92;103171.63;4961658;28;20078;-71
2023/02/28 01:38:39;;;;;;;4.70;2.65;;;;;;;2.25;53.81;103167.66;4952938;28;20038;-71
2023/02/28 01:41:06;;;;;;;7.65;3.20;;;;;;;2.28;53.82;103167.72;4989203;28;20034;-72
2023/02/28 01:43:44;;;;;;;8.05;3.13;;;;;;;2.08;54.62;103156.78;4954642;28;20038;-75
2023/02/28 01:46:12;;;;;;;5.93;3.05;;;;;;;2.27;54.19;103160.84;4948889;28;20077;-76
2023/02/28 01:48:44;;;;;;;6.55;2.70;;;;;;;2.41;54.09;103161.25;4958312;28;20058;-76
2023/02/28 01:51:17;;;;;;;10.40;3.95;;;;;;;2.12;54.47;103161.22;4963649;28;20063;-72
2023/02/28 01:53:47;;;;;;;7.35;2.83;;;;;;;2.26;54.67;103164.22;4959804;28;20127;-74
2023/02/28 01:56:22;;;;;;;6.32;3.03;;;;;;;2.17;54.62;103154.47;4962854;28;20043;-71
2023/02/28 01:58:52;;;;;;;7.38;3.15;;;;;;;2.12;54.81;103149.19;4955890;28;20053;-72
2023/02/28 02:01:23;;;;;;;10.77;3.40;;;;;;;2.38;54.35;103153.38;4963640;28;20539;-73
2023/02/28 02:03:56;;;;;;;7.72;2.80;;;;;;;2.28;54.27;103152.25;4964830;28;20057;-73
2023/02/28 02:06:36;;;;;;;5.30;2.80;;;;;;;2.32;54.16;103144.63;4962944;28;20041;-71
2023/02/28 02:09:03;;;;;;;5.07;3.22;;;;;;;2.24;54.78;103143.56;4954667;28;20455;-75
2023/02/28 02:11:29;;;;;;;6.45;2.72;;;;;;;2.33;54.29;103150.66;4958495;28;20030;-73
2023/02/28 02:14:05;;;;;;;4.20;2.85;;;;;;;2.24;54.57;103142.66;4947308;28;20259;-73
2023/02/28 02:17:10;;;;;;;10.13;3.22;;;;;;;1.93;55.22;103133.97;4969627;28;20455;-73
2023/02/28 02:19:54;;;;;;;5.30;3.00;;;;;;;1.86;55.17;103137.16;4970379;28;20042;-70
2023/02/28 02:22:34;;;;;;;6.00;3.22;;;;;;;1.81;55.40;103141.28;4960475;28;20037;-70
2023/02/28 02:25:28;;;;;;;3.65;2.20;;;;;;;1.81;55.77;103142.16;4958009;28;20157;-70
2023/02/28 02:28:12;;;;;;;9.68;3.03;;;;;;;1.67;56.00;103143.41;4970397;28;20046;-74
2023/02/28 02:30:43;;;;;;;10.23;3.38;;;;;;;1.54;56.23;103143.81;4952136;28;20050;-72
2023/02/28 02:33:27;;;;;;;7.70;3.13;;;;;;;1.90;55.50;103136.44;4955879;28;20139;-70
2023/02/28 02:36:07;;;;;;;7.93;3.55;;;;;;;2.12;55.63;103135.41;4959962;28;20079;-78
2023/02/28 02:38:33;;;;;;;7.32;3.42;;;;;;;2.03;55.11;103138.56;4959648;28;20061;-76
2023/02/28 02:41:09;;;;;;;5.38;3.15;;;;;;;2.03;55.47;103138.56;4952280;28;20054;-73
2023/02/28 02:44:09;;;;;;;7.03;3.10;;;;;;;2.25;55.19;103142.72;4950415;28;20894;-72
2023/02/28 02:46:39;;;;;;;9.20;4.50;;;;;;;2.21;54.63;103135.69;4968492;28;20057;-67
2023/02/28 02:49:11;;;;;;;6.35;3.15;;;;;;;2.24;54.62;103140.06;4955021;28;20416;-73
2023/02/28 02:51:40;;;;;;;6.13;4.10;;;;;;;2.19;54.90;103142.50;4954212;28;20039;-74
2023/02/28 02:54:12;;;;;;;7.07;3.83;;;;;;;1.81;55.59;103147.31;4946601;28;20049;-72
2023/02/28 02:56:43;;;;;;;6.85;3.70;;;;;;;2.16;55.03;103150.16;4958783;28;20105;-69
2023/02/28 02:59:13;;;;;;;9.80;2.95;;;;;;;2.28;55.07;103147.09;4962892;28;20531;-71
2023/02/28 03:01:41;;;;;;;6.72;3.60;;;;;;;2.12;54.90;103148.31;4970101;28;20640;-77
2023/02/28 03:04:29;;;;;;;6.07;3.00;;;;;;;2.31;55.11;103147.16;4957514;28;20043;-71
2023/02/28 03:06:54;;;;;;;5.70;3.50;;;;;;;2.40;54.75;103141.41;4953587;28;20042;-72
2023/02/28 03:09:25;;;;;;;7.47;4.00;;;;;;;2.40;54.54;103142.31;4954422;28;20042;-71
2023/02/28 03:11:53;;;;;;;9.57;3.22;;;;;;;2.34;54.75;103147.28;4943678;28;20040;-74
2023/02/28 03:14:40;;;;;;;5.13;3.70;;;;;;;2.40;54.86;103146.56;4954383;28;20536;-72
2023/02/28 03:17:27;;;;;;;6.60;3.40;;;;;;;2.38;54.93;103143.06;4964069;28;20850;-74
2023/02/28 03:20:09;;;;;;;7.22;3.53;;;;;;;2.39;54.82;103145.72;4942180;28;20520;-72
2023/02/28 03:22:34;;;;;;;9.88;4.57;;;;;;;2.35;54.53;103144.75;4951884;28;20043;-72
2023/02/28 03:25:30;;;;;;;7.45;4.03;;;;;;;2.32;54.92;103147.22;4963424;28;20061;-71
2023/02/28 03:28:22;;;;;;;6.00;3.53;;;;;;;2.29;54.52;103149.72;4959104;28;20037;-69
2023/02/28 03:30:56;;;;;;;6.22;4.00;;;;;;;2.26;54.84;103143.56;4951989;28;20053;-70
2023/02/28 03:33:34;;;;;;;7.88;3.67;;;;;;;2.31;54.82;103142.91;4954424;28;20041;-69
2023/02/28 03:36:13;;;;;;;6.20;3.92;;;;;;;2.30;54.42;103143.72;4954565;28;20132;-68
2023/02/28 03:38:51;;;;;;;9.20;3.80;;;;;;;2.18;54.69;103130.44;4951695;28;20832;-69
2023/02/28 03:41:30;;;;;;;5.68;3.25;;;;;;;2.15;54.75;103138.06;4940355;28;20512;-68
2023/02/28 03:44:04;;;;;;;9.55;4.18;;;;;;;2.21;54.81;103140.84;4943066;28;20949;-68
2023/02/28 03:46:34;;;;;;;8.10;4.00;;;;;;;2.16;55.17;103137.25;4953758;28;20037;-69
2023/02/28 03:49:08;;;;;;;9.80;4.13;;;;;;;2.14;55.51;103144.06;4954077;28;20078;-69
2023/02/28 03:51:35;;;;;;;7.22;4.05;;;;;;;2.26;55.12;103141.00;4950878;28;20045;-68
2023/02/28 03:54:08;;;;;;;6.68;3.53;;;;;;;2.39;54.77;103142.25;4960239;28;20533;-69
2023/02/28 03:56:52;;;;;;;5.88;4.38;;;;;;;2.41;54.59;103138.03;4953209;28;20042;-68
2023/02/28 03:59:41;;;;;;;6.22;4.13;;;;;;;2.45;54.66;103145.03;4955704;28;20043;-67
2023/02/28 04:02:07;;;;;;;6.65;3.83;;;;;;;2.42;54.41;103148.41;4958179;28;20034;-68
2023/02/28 04:04:33;;;;;;;5.57;4.03;;;;;;;2.24;54.48;103156.44;4950871;28;20046;-68
2023/02/28 04:07:08;;;;;;;6.93;4.05;;;;;;;2.11;54.79;103151.72;4962948;28;20038;-69
2023/02/28 04:09:34;;;;;;;5.72;3.38;;;;;;;2.01;55.10;103147.97;4950987;28;20593;-72
2023/02/28 04:11:59;;;;;;;5.68;3.75;;;;;;;2.08;55.02;103146.44;4955786;28;20097;-72
2023/02/28 04:14:26;;;;;;;7.68;3.63;;;;;;;2.00;55.26;103145.31;4952774;28;20106;-71
2023/02/28 04:16:52;;;;;;;12.00;3.60;;;;;;;2.02;54.83;103147.16;4969357;28;20037;-72
2023/02/28 04:19:18;;;;;;;8.63;4.10;;;;;;;1.99;54.86;103149.59;4942792;28;20039;-71
2023/02/28 04:21:46;;;;;;;8.15;4.88;;;;;;;1.87;55.22;103151.81;4953877;28;20071;-71
2023/02/28 04:24:14;;;;;;;5.90;3.58;;;;;;;1.93;55.45;103145.16;4953413;28;20093;-70
2023/02/28 04:26:43;;;;;;;4.88;3.65;;;;;;;2.06;55.48;103150.69;4954951;28;20328;-70
2023/02/28 04:29:09;;;;;;;5.72;4.18;;;;;;;2.13;55.15;103142.31;4952889;28;20488;-69
2023/02/28 04:31:35;;;;;;;5.13;2.88;;;;;;;2.17;55.21;103136.41;4954250;28;20045;-71
2023/02/28 04:34:00;;;;;;;7.55;4.10;;;;;;;2.18;55.13;103145.94;4953180;28;20054;-70
2023/02/28 04:36:26;;;;;;;4.57;3.60;;;;;;;2.28;55.07;103147.09;4956760;28;20031;-71
2023/02/28 04:38:52;;;;;;;9.80;4.18;;;;;;;2.22;54.95;103146.88;4956059;28;20038;-71
2023/02/28 04:41:21;;;;;;;5.30;3.90;;;;;;;2.15;54.86;103148.41;4955207;28;20034;-73
2023/02/28 04:43:47;;;;;;;8.15;4.63;;;;;;;2.01;55.06;103149.66;4966744;28;20211;-73
2023/02/28 04:46:12;;;;;;;8.60;3.95;;;;;;;2.01;54.98;103154.84;4954289;28;20652;-73
2023/02/28 04:48:39;;;;;;;8.95;5.07;;;;;;;1.98;55.32;103157.31;4968474;28;20034;-70
2023/02/28 04:51:07;;;;;;;10.43;4.28;;;;;;;2.01;55.64;103162.56;4959221;28;20162;-70
2023/02/28 04:53:34;;;;;;;8.73;4.32;;;;;;;2.00;55.25;103165.97;4958870;28;20038;-68
2023/02/28 04:56:00;;;;;;;7.22;4.80;;;;;;;1.92;55.37;103164.00;4959101;28;20093;-67
2023/02/28 04:58:26;;;;;;;6.55;4.18;;;;;;;1.96;55.71;103164.13;4957365;28;20654;-66
2023/02/28 05:00:53;;;;;;;6.78;4.18;;;;;;;1.90;55.48;103160.50;4942031;28;20512;-68
2023/02/28 05:03:20;;;;;;;6.72;4.07;;;;;;;1.87;55.51;103159.53;4973398;28;20805;-66
2023/02/28 05:05:46;;;;;;;8.75;4.03;;;;;;;1.82;55.45;103161.97;4958694;28;20058;-71
2023/02/28 05:08:12;;;;;;;7.03;4.07;;;;;;;1.84;55.69;103160.31;4972321;28;20038;-72
2023/02/28 05:10:38;;;;;;;5.97;3.75;;;;;;;1.80;55.55;103168.78;4955256;28;20108;-71
2023/02/28 05:13:04;;;;;;;7.53;4.30;;;;;;;1.75;55.71;103169.44;4981912;28;20026;-69
2023/02/28 05:15:29;;;;;;;12.95;4.70;;;;;;;1.78;55.84;103170.44;4955172;28;20866;-70
2023/02/28 05:17:55;;;;;;;9.18;5.00;;;;;;;1.81;56.03;103169.66;4962046;28;20034;-67
2023/02/28 05:20:20;;;;;;;8.73;4.22;;;;;;;1.85;55.80;103164.63;4956688;28;20061;-64
2023/02/28 05:22:47;;;;;;;6.20;4.00;;;;;;;1.89;55.65;103171.66;4955141;28;20031;-65
2023/02/28 05:25:18;;;;;;;8.48;5.20;;;;;;;1.88;55.44;103180.22;4956329;28;20133;-65
2023/02/28 05:27:46;;;;;;;11.67;4.43;;;;;;;1.83;55.69;103179.19;4971444;28;20101;-66
2023/02/28 05:30:11;;;;;;;8.88;5.15;;;;;;;1.83;55.97;103171.44;4955788;28;20294;-67
2023/02/28 05:32:38;;;;;;;8.63;4.45;;;;;;;1.96;55.79;103174.44;4954426;28;21026;-66
2023/02/28 05:35:04;;;;;;;9.48;5.55;;;;;;;2.02;55.46;103172.03;4955620;28;20476;-67
2023/02/28 05:37:29;;;;;;;10.70;4.80;;;;;;;2.01;55.30;103172.88;4956765;28;20092;-67
2023/02/28 05:39:54;;;;;;;10.68;5.10;;;;;;;2.01;55.41;103163.44;4956873;28;20157;-69
2023/02/28 05:42:20;;;;;;;7.85;4.53;;;;;;;1.89;55.43;103169.09;4955630;28;20153;-70
2023/02/28 05:44:46;;;;;;;6.53;4.05;;;;;;;1.89;55.55;103169.09;4956043;28;20193;-71
2023/02/28 05:47:15;;;;;;;11.95;4.28;;;;;;;1.87;55.70;103167.28;4959270;28;20081;-73
2023/02/28 05:49:41;;;;;;;9.02;5.38;;;;;;;1.92;55.20;103169.16;4956295;28;20412;-69
2023/02/28 05:52:06;;;;;;;11.05;4.70;;;;;;;2.04;55.29;103167.81;4941800;28;20193;-72
2023/02/28 05:54:32;;;;;;;6.78;4.75;;;;;;;2.03;55.10;103171.22;4953930;28;20043;-71
2023/02/28 05:56:57;;;;;;;5.78;4.00;;;;;;;2.05;55.53;103169.59;4954204;28;20026;-68
2023/02/28 05:59:23;;;;;;;11.00;4.32;;;;;;;2.04;55.61;103172.97;4958081;28;20463;-68
2023/02/28 06:01:48;;;;;;;8.15;4.28;;;;;;;1.93;55.40;103178.69;4954027;28;20046;-69
2023/02/28 06:04:19;;;;;;;8.40;5.10;;;;;;;2.02;55.55;103169.47;4956098;28;20039;-68
2023/02/28 06:06:46;;;;;;;6.25;5.10;;;;;;;1.91;55.48;103171.72;4954595;28;20034;-70
2023/02/28 06:09:12;;;;;;;6.88;5.00;;;;;;;2.08;55.23;103182.56;4944759;28;22836;-69
2023/02/28 06:11:38;;;;;;;7.72;4.47;;;;;;;2.13;55.53;103174.16;4954052;28;20027;-69
2023/02/28 06:14:04;;;;;;;9.05;4.82;;;;;;;2.09;55.01;103181.75;4959249;28;20054;-68
2023/02/28 06:16:32;;;;;;;9.57;5.60;;;;;;;2.21;55.27;103179.56;4954124;28;20053;-69
2023/02/28 06:18:59;;;;;;;9.30;5.13;;;;;;;2.21;55.05;103179.56;4968101;28;20513;-68
2023/02/28 06:21:27;;;;;;;7.75;5.18;;;;;;;2.19;54.75;103183.78;4956635;28;20167;-70
2023/02/28 06:23:53;;;;;;;7.88;5.20;;;;;;;2.26;55.09;103190.03;4973308;28;20030;-68
2023/02/28 06:26:19;;;;;;;10.50;5.25;;;;;;;2.14;55.12;103190.53;4960715;28;20043;-68
2023/02/28 06:28:45;;;;;;;9.00;5.05;;;;;;;2.05;54.89;103183.34;4966259;28;20062;-69
2023/02/28 06:31:15;;;;;;;12.20;6.57;;;;;;;2.00;55.05;103192.66;4951397;28;20746;-69
2023/02/28 06:33:42;;;;;;;8.32;4.80;;;;;;;2.00;55.34;103192.66;4970666;28;20083;-69
2023/02/28 06:36:09;;;;;;;13.13;5.57;;;;;;;2.11;55.32;103196.47;4984827;28;20034;-68
2023/02/28 06:38:36;;;;;;;7.72;5.25;;;;;;;2.16;54.95;103201.75;4958781;28;20097;-72
2023/02/28 06:41:04;;;;;;;8.35;5.22;;;;;;;2.27;55.54;103200.41;4959199;28;22675;-69
2023/02/28 06:43:31;;;;;;;8.20;5.10;;;;;;;2.40;55.25;103214.59;4955136;28;20042;-71
2023/02/28 06:45:59;;;;;;;9.98;6.15;;;;;;;2.46;54.96;103208.72;4939832;28;20042;-67
2023/02/28 06:48:26;;;;;;;10.30;6.65;;;;;;;2.60;55.42;103212.63;4969987;28;20038;-68
2023/02/28 06:50:52;;;;;;;7.25;4.65;;;;;;;2.68;54.73;103211.13;4962366;28;20050;-72
2023/02/28 06:53:17;;;;;;;7.97;5.00;;;;;;;2.68;54.15;103211.13;4961253;28;20244;-69
2023/02/28 06:55:44;;;;;;;7.97;5.30;;;;;;;2.31;54.65;103210.00;4966299;28;20117;-72
2023/02/28 06:58:15;;;;;;;11.20;5.40;;;;;;;2.70;54.44;103213.78;4964163;28;20045;-74
2023/02/28 07:00:43;;;;;;;11.13;5.90;;;;;;;3.04;54.43;103219.94;4964903;28;20747;-75
2023/02/28 07:03:10;;;;;;;12.77;6.00;;;;;;;3.11;53.74;103221.84;4955462;28;20037;-75
2023/02/28 07:05:37;;;;;;;8.95;4.00;;;;;;;3.13;53.40;103221.06;4930871;28;20047;-69
2023/02/28 07:08:04;;;;;;;7.53;5.20;;;;;;;2.91;52.69;103226.44;4936184;28;20039;-68
2023/02/28 07:10:30;;;;;;;8.07;4.82;;;;;;;2.84;53.41;103232.25;4935375;28;21016;-68
2023/02/28 07:12:56;;;;;;;8.98;4.82;;;;;;;2.92;53.32;103230.78;4936901;28;20054;-66
2023/02/28 07:15:22;;;;;;;11.45;4.45;;;;;;;2.97;53.28;103239.53;4936939;28;20035;-69
2023/02/28 07:17:48;;;;;;;9.55;5.80;;;;;;;3.17;53.42;103237.56;4935314;28;20122;-66
2023/02/28 07:20:13;;;;;;;12.35;5.10;;;;;;;3.36;52.52;103237.28;4934997;28;20042;-74
2023/02/28 07:22:39;;;;;;;13.02;4.57;;;;;;;3.53;52.14;103242.91;4936200;28;20094;-66
2023/02/28 07:25:06;;;;;;;5.45;4.18;;;;;;;3.98;51.56;103241.50;4934964;28;20129;-65
2023/02/28 07:27:32;;;;;;;5.38;3.88;;;;;;;5.46;49.04;103240.53;4944561;28;20213;-72
2023/02/28 07:30:01;;;;;;;9.13;4.97;;;;;;;7.52;46.90;103231.50;4939162;28;20042;-73
2023/02/28 07:32:27;;;;;;;5.03;3.83;;;;;;;9.43;41.49;103224.06;4938267;28;20023;-72
2023/02/28 07:34:53;;;;;;;3.15;2.70;;;;;;;10.67;36.95;103220.59;4940037;28;20039;-72
2023/02/28 07:37:20;;;;;;;6.43;2.88;;;;;;;12.07;35.69;103228.56;4941886;28;20035;-75
2023/02/28 07:39:45;;;;;;;6.90;3.40;;;;;;;12.86;32.49;103226.00;4933882;28;20094;-73
2023/02/28 07:42:12;;;;;;;4.22;3.15;;;;;;;13.34;30.46;103228.88;4940756;28;20031;-71
2023/02/28 07:44:40;;;;;;;3.40;2.45;;;;;;;13.60;29.26;103230.28;4937068;28;20306;-70
2023/02/28 07:47:09;;;;;;;3.13;2.40;;;;;;;14.20;28.51;103218.75;4937071;28;20050;-72
2023/02/28 07:49:37;;;;;;;;;;;;;;;14.68;28.78;103217.00;4929173;28;20101;-72
2023/02/28 07:52:06;;;;;;;3.03;2.45;;;;;;;14.66;28.13;103210.88;4934862;28;19917;-69
2023/02/28 07:54:33;;;;;;;3.35;2.08;;;;;;;14.79;26.78;103219.41;4931901;28;20692;-68
2023/02/28 07:56:58;;;;;;;5.00;2.13;;;;;;;14.50;27.67;103222.59;4935231;28;20322;-68
2023/02/28 07:59:24;;;;;;;4.03;2.63;;;;;;;14.72;27.76;103221.31;4932795;28;20053;-67
2023/02/28 08:01:50;;;;;;;3.13;2.50;;;;;;;15.08;28.11;103223.16;4935456;28;20042;-67
2023/02/28 08:04:17;;;;;;;3.40;2.45;;;;;;;15.21;27.56;103223.75;4931647;28;20039;-68
2023/02/28 08:06:42;;;;;;;2.92;1.85;;;;;;;14.88;27.08;103226.22;4934662;28;20045;-68
2023/02/28 08:09:11;;;;;;;3.47;2.22;;;;;;;15.22;27.69;103220.28;4933815;28;20055;-68
2023/02/28 08:11:36;;;;;;;4.38;1.88;;;;;;;15.43;25.34;103230.31;4932154;28;20077;-69
2023/02/28 08:14:02;;;;;;;3.70;2.08;;;;;;;14.74;26.36;103221.25;4934300;28;20047;-69
2023/02/28 08:16:27;;;;;;;3.97;1.92;;;;;;;16.14;25.76;103228.59;4933464;28;20050;-69
2023/02/28 08:18:53;;;;;;;2.55;2.20;;;;;;;16.92;25.00;103223.78;4934407;28;20049;-69
2023/02/28 08:21:20;;;;;;;3.03;1.88;;;;;;;17.38;23.70;103217.09;4932224;28;20041;-68
2023/02/28 08:23:50;;;;;;;2.92;1.38;;;;;;;16.69;23.99;103224.44;4937902;28;20043;-68
2023/02/28 08:26:16;;;;;;;5.38;2.30;;;;;;;16.68;23.40;103230.63;4936882;28;20035;-67
2023/02/28 08:28:42;;;;;;;3.55;2.22;;;;;;;17.02;23.15;103234.94;4934398;28;20035;-68
2023/02/28 08:31:13;;;;;;;3.45;1.80;;;;;;;17.38;23.59;103232.06;4925164;28;20050;-68
2023/02/28 08:33:40;;;;;;;4.82;2.15;;;;;;;16.76;22.21;103230.44;4942246;28;20105;-68
2023/02/28 08:36:07;;;;;;;4.38;2.03;;;;;;;16.48;23.75;103230.31;4935662;28;20404;-69
2023/02/28 08:38:32;;;;;;;4.22;1.67;;;;;;;15.18;25.01;103230.84;4934991;28;20480;-69
2023/02/28 08:41:00;;;;;;;4.55;2.83;;;;;;;14.26;26.46;103231.81;4936008;28;20257;-69
2023/02/28 08:43:25;;;;;;;5.80;1.90;;;;;;;15.02;26.14;103229.44;4966332;28;20617;-69
2023/02/28 08:45:52;;;;;;;4.50;2.40;;;;;;;15.65;26.55;103229.81;4937903;28;20040;-69
2023/02/28 08:48:18;;;;;;;5.47;2.88;;;;;;;14.32;27.74;103236.94;4935694;28;21251;-68
2023/02/28 08:50:44;;;;;;;7.28;2.83;;;;;;;13.90;27.10;103232.41;4937385;28;20420;-69
2023/02/28 08:53:09;;;;;;;3.95;2.38;;;;;;;13.56;26.25;103236.44;4935595;28;20035;-68
2023/02/28 08:55:35;;;;;;;4.88;2.63;;;;;;;13.43;28.90;103235.72;4935728;28;20043;-68
2023/02/28 08:58:01;;;;;;;10.00;3.33;;;;;;;13.21;28.80;103240.44;4934616;28;20067;-69
2023/02/28 09:00:26;;;;;;;6.68;2.78;;;;;;;13.45;30.15;103237.47;4952049;28;20035;-69
2023/02/28 09:02:54;;;;;;;8.40;4.57;;;;;;;13.83;28.52;103228.16;4938928;28;20100;-68
2023/02/28 09:05:20;;;;;;;3.90;2.47;;;;;;;14.07;28.08;103224.22;4935490;28;20046;-68
2023/02/28 09:07:45;;;;;;;3.75;2.22;;;;;;;13.55;29.48;103230.31;4938836;28;20073;-69
2023/02/28 09:10:11;;;;;;;4.10;2.25;;;;;;;11.96;30.67;103235.66;4935778;28;20055;-68
2023/02/28 09:12:37;;;;;;;7.55;3.33;;;;;;;10.33;32.71;103231.13;4936799;28;20693;-69
2023/02/28 09:15:03;;;;;;;8.07;2.90;;;;;;;8.83;34.68;103243.00;4933288;28;20589;-71
2023/02/28 09:17:31;;;;;;;8.00;3.15;;;;;;;9.28;35.64;103243.19;4937007;28;20038;-68
2023/02/28 09:19:57;;;;;;;12.05;3.50;;;;;;;10.30;33.49;103236.34;4933888;28;20416;-69
2023/02/28 09:22:22;;;;;;;4.63;2.15;;;;;;;10.39;32.44;103241.56;4933636;28;20086;-68
2023/02/28 09:24:48;;;;;;;5.75;2.60;;;;;;;9.65;34.04;103241.53;4930140;28;20080;-71
2023/02/28 09:27:13;;;;;;;6.60;3.05;;;;;;;9.10;35.58;103244.00;4931265;28;20371;-70
2023/02/28 09:29:38;;;;;;;6.75;2.45;;;;;;;8.84;35.67;103244.75;4928200;28;20097;-71
2023/02/28 09:32:07;;;;;;;3.85;2.25;;;;;;;8.17;37.26;103246.88;4931370;28;20460;-69
2023/02/28 09:34:33;;;;;;;4.88;2.92;;;;;;;7.84;37.76;103249.19;4927982;28;20181;-69
2023/02/28 09:36:59;;;;;;;6.55;2.75;;;;;;;7.39;38.10;103249.56;4933767;28;20035;-73
2023/02/28 09:39:26;;;;;;;7.78;2.97;;;;;;;7.38;38.24;103255.59;4933587;28;20053;-70
2023/02/28 09:41:53;;;;;;;6.32;3.63;;;;;;;7.60;36.64;103252.44;4930675;28;20621;-71
2023/02/28 09:44:21;;;;;;;6.80;2.35;;;;;;;7.22;38.02;103260.66;4935014;28;20047;-71
2023/02/28 09:46:54;;;;;;;6.25;2.50;;;;;;;7.12;37.71;103264.84;4941883;28;20097;-70
2023/02/28 09:49:25;;;;;;;5.45;2.58;;;;;;;6.85;38.07;103264.50;4948960;28;20046;-71
2023/02/28 09:51:55;;;;;;;7.40;2.60;;;;;;;7.52;37.10;103259.25;4952582;28;20034;-71
2023/02/28 09:54:27;;;;;;;3.58;2.50;;;;;;;7.65;36.68;103270.72;4948368;28;20046;-70
2023/02/28 09:56:59;;;;;;;5.63;2.78;;;;;;;7.69;36.73;103269.84;4953711;28;20037;-71
2023/02/28 10:00:00;;;;;;;4.45;3.03;;;;;;;7.96;37.39;103271.88;4977741;28;20412;-69
2023/02/28 10:02:49;;;;;;;6.75;2.58;;;;;;;8.82;35.66;103262.13;4947781;28;20394;-72
2023/02/28 10:05:22;;;;;;;8.45;3.05;;;;;;;10.10;34.38;103260.78;4947196;28;20129;-69
2023/02/28 10:07:54;;;;;;;4.05;2.75;;;;;;;10.66;32.69;103260.69;4965910;28;20034;-71
2023/02/28 10:10:43;;;;;;;;;;;;;;;10.32;32.18;103255.53;4950173;28;20651;-69
2023/02/28 10:13:21;;;;;;;3.95;2.13;;;;;;;10.63;33.11;103257.22;4947971;28;19918;-70
2023/02/28 10:15:53;;;;;;;5.13;2.15;;;;;;;10.82;33.92;103270.28;4940952;28;20050;-71
2023/02/28 10:18:25;;;;;;;4.13;2.40;;;;;;;11.26;30.63;103264.00;4949647;28;20851;-71
2023/02/28 10:20:52;;;;;;;4.72;2.10;;;;;;;11.32;30.62;103263.97;4970382;28;20042;-72
2023/02/28 10:23:37;;;;;;;7.40;1.67;;;;;;;10.16;29.81;103260.75;4947474;28;20039;-70
2023/02/28 10:26:12;;;;;;;6.07;1.88;;;;;;;8.97;32.27;103264.81;4953121;28;20054;-72
2023/02/28 10:28:39;;;;;;;4.32;1.08;;;;;;;8.19;32.82;103264.25;4956420;28;20527;-71
2023/02/28 10:31:04;;;;;;;5.13;1.70;;;;;;;7.46;34.34;103266.97;4954042;28;20060;-71
2023/02/28 10:33:34;;;;;;;3.38;1.80;;;;;;;7.31;34.81;103271.16;4936800;28;20523;-69
2023/02/28 10:36:00;;;;;;;2.38;1.58;;;;;;;6.91;35.13;103270.66;4964960;28;20051;-70
2023/02/28 10:38:34;;;;;;;6.07;1.95;;;;;;;6.69;35.82;103274.66;4950136;28;20113;-70
2023/02/28 10:41:06;;;;;;;4.65;2.33;;;;;;;6.47;36.58;103273.47;4952393;28;20637;-72
2023/02/28 10:43:32;;;;;;;13.52;1.83;;;;;;;6.54;36.36;103278.75;4963666;28;20431;-70
2023/02/28 10:45:59;;;;;;;4.88;1.40;;;;;;;6.37;36.59;103276.75;4947342;28;20050;-72
2023/02/28 10:48:42;;;;;;;5.00;2.05;;;;;;;6.60;35.57;103273.66;4945599;28;20197;-70
2023/02/28 10:51:11;;;;;;;5.13;1.63;;;;;;;6.47;36.62;103273.47;4969270;28;20054;-71
2023/02/28 10:53:48;;;;;;;4.63;1.63;;;;;;;6.75;35.59;103271.28;4965997;28;20045;-74
2023/02/28 10:56:21;;;;;;;4.40;1.75;;;;;;;6.71;36.20;103282.50;4953278;28;20042;-72
2023/02/28 10:59:05;;;;;;;6.88;1.92;;;;;;;6.87;35.59;103271.47;4950181;28;20031;-71
2023/02/28 11:01:35;;;;;;;3.75;2.05;;;;;;;6.79;36.33;103270.47;4948178;28;20270;-71
2023/02/28 11:04:01;;;;;;;5.72;2.00;;;;;;;6.77;35.05;103266.09;4956456;28;20512;-72
2023/02/28 11:06:32;;;;;;;4.05;1.15;;;;;;;7.06;35.88;103272.56;4947239;28;21155;-70
2023/02/28 11:09:25;;;;;;;3.60;1.83;;;;;;;7.11;35.83;103265.72;4952312;28;20519;-71
2023/02/28 11:11:52;;;;;;;4.80;1.80;;;;;;;7.22;34.19;103258.06;4950615;28;20054;-70
2023/02/28 11:14:25;;;;;;;3.00;1.30;;;;;;;7.00;33.61;103269.91;4938624;28;20137;-70
2023/02/28 11:16:52;;;;;;;5.85;1.23;;;;;;;7.48;34.59;103262.66;4954118;28;20038;-71
2023/02/28 11:19:38;;;;;;;2.70;1.08;;;;;;;7.66;33.99;103262.03;4949820;28;20103;-72
2023/02/28 11:22:05;;;;;;;2.33;0.85;;;;;;;7.67;33.30;103249.03;4954366;28;20424;-72
2023/02/28 11:24:35;;;;;;;3.55;1.27;;;;;;;8.01;33.80;103259.78;4953591;28;20046;-70
2023/02/28 11:27:01;;;;;;;7.35;1.35;;;;;;;8.13;33.21;103257.25;4953344;28;20145;-71
2023/02/28 11:29:31;;;;;;;6.68;1.65;;;;;;;8.69;31.83;103244.63;4951502;28;20042;-70
2023/02/28 11:32:11;;;;;;;15.50;2.67;;;;;;;9.09;32.13;103253.53;4966069;28;20038;-71
2023/02/28 11:34:37;;;;;;;3.08;1.30;;;;;;;9.91;31.66;103243.34;4948282;28;20046;-69
2023/02/28 11:37:05;;;;;;;2.08;1.35;;;;;;;10.71;29.75;103244.13;4952341;28;20051;-70
2023/02/28 11:39:32;;;;;;;18.45;2.53;;;;;;;10.35;30.79;103239.84;4948351;28;20073;-69
2023/02/28 11:42:16;;;;;;;8.82;1.60;;;;;;;10.05;30.71;103245.94;4940450;28;20146;-69